Thomasville, Georgia
Current Conditions -  °F | °C
As of 12:55 PM on Saturday 25 Oct 2014 (Local Time) from KTVI Reporting Station
Clear Clear  
Wind Chill: 75°   Ceiling: Unl
Heat Index: 75°   Visibility: 10mi
Dew Point: 46°   Wind: 5mph
Humidity: 36%   Direction: 10°N
Pressure: 30.04"   Gusts: NA
Location:  30.84°N, 83.98°W
Report Text: KTVI 251655Z AUTO 01004KT 10SM CLR 24/08 A3004 RMK AO2
Loading
Personal Weather Stations






























Interactive Weather Map
Tropical Storm Tracking
New forecast layout! Learn more

10-Day Weather Forecast

Advertisements
Track Severe Weather on mobile